Time;durP1;ratioP1;P1;durP2;ratioP2;P2;SDS_P1;SDS_P2;PMS_P1;PMS_P2;Temp;Humidity;BMP_temperature;BMP_pressure;BME280_temperature;BME280_humidity;BME280_pressure;Samples;Min_cycle;Max_cycle;Signal;HPM_P1;HPM_P2
2023/02/08 00:00:55;;;;;;;;;;;;;;;-3.80;100.00;66371.00;5047770;28;19924;-87
2023/02/08 00:03:20;;;;;;;;;;;;;;;-3.83;100.00;66359.31;5048941;28;19920;-86
2023/02/08 00:05:45;;;;;;;;;;;;;;;-3.89;100.00;66356.28;5047859;28;19927;-86
2023/02/08 00:08:11;;;;;;;;;;;;;;;-3.93;100.00;66349.22;5051152;28;19928;-84
2023/02/08 00:10:36;;;;;;;;;;;;;;;-3.90;100.00;66352.03;5050506;28;20000;-85
2023/02/08 00:13:01;;;;;;;;;;;;;;;-3.88;100.00;66362.63;5054387;28;19935;-80
2023/02/08 00:15:26;;;;;;;;;;;;;;;-3.81;100.00;66364.72;5053569;28;20459;-84
2023/02/08 00:17:51;;;;;;;;;;;;;;;-3.80;100.00;66365.25;5050706;28;20310;-85
2023/02/08 00:20:17;;;;;;;;;;;;;;;-3.74;100.00;66369.97;5046612;28;19925;-83
2023/02/08 00:22:42;;;;;;;;;;;;;;;-3.81;100.00;66361.53;5047462;28;19966;-82
2023/02/08 00:25:08;;;;;;;;;;;;;;;-3.91;100.00;66356.66;5046990;28;19929;-87
2023/02/08 00:27:34;;;;;;;;;;;;;;;-3.88;100.00;66356.88;5046966;28;19924;-85
2023/02/08 00:29:59;;;;;;;;;;;;;;;-3.69;100.00;66380.19;5043289;28;20726;-85
2023/02/08 00:32:24;;;;;;;;;;;;;;;-3.74;100.00;66369.38;5046650;28;20496;-84
2023/02/08 00:34:49;;;;;;;;;;;;;;;;;;5043399;28;20344;-87
2023/02/08 00:37:15;;;;;;;;;;;;;;;-3.80;100.00;66365.25;5045959;28;19925;-84
2023/02/08 00:39:40;;;;;;;;;;;;;;;-3.80;100.00;66365.81;5046641;28;19933;-83
2023/02/08 00:42:05;;;;;;;;;;;;;;;;;;5044805;28;19920;-85
2023/02/08 00:44:30;;;;;;;;;;;;;;;-3.78;100.00;66365.47;5046934;28;19925;-87
2023/02/08 00:46:56;;;;;;;;;;;;;;;-3.92;100.00;66354.97;5046693;28;19920;-84
2023/02/08 00:49:21;;;;;;;;;;;;;;;-3.98;100.00;66343.06;5046993;28;19967;-85
2023/02/08 00:51:46;;;;;;;;;;;;;;;-3.93;100.00;66351.81;5044130;28;19931;-86
2023/02/08 00:54:12;;;;;;;;;;;;;;;-4.03;100.00;66343.22;5046777;28;19924;-84
2023/02/08 00:56:37;;;;;;;;;;;;;;;-4.01;100.00;66342.84;5048140;28;19917;-85
2023/02/08 00:59:03;;;;;;;;;;;;;;;-3.94;100.00;66350.72;5046978;28;19929;-83
2023/02/08 01:01:28;;;;;;;;;;;;;;;-4.04;100.00;66342.09;5046529;28;19925;-86
2023/02/08 01:03:53;;;;;;;;;;;;;;;-3.96;100.00;66351.06;5047275;28;19925;-86
2023/02/08 01:06:18;;;;;;;;;;;;;;;-3.96;100.00;66345.31;5042563;28;19949;-86
2023/02/08 01:08:44;;;;;;;;;;;;;;;-3.99;100.00;66342.50;5045508;28;19932;-84
2023/02/08 01:11:11;;;;;;;;;;;;;;;-4.03;100.00;66343.22;5048095;28;20350;-86
2023/02/08 01:13:37;;;;;;;;;;;;;;;-4.06;100.00;66339.84;5047649;28;19920;-85
2023/02/08 01:16:12;;;;;;;;;;;;;;;-4.06;100.00;66334.66;5044588;28;19947;-81
2023/02/08 01:18:39;;;;;;;;;;;;;;;-4.09;100.00;66336.50;5044827;28;19951;-85
2023/02/08 01:21:05;;;;;;;;;;;;;;;-4.02;100.00;66341.75;5045045;28;19971;-86
2023/02/08 01:23:30;;;;;;;;;;;;;;;-4.06;100.00;66337.25;5047212;28;20007;-86
2023/02/08 01:25:56;;;;;;;;;;;;;;;-4.13;100.00;66332.56;5041785;28;20011;-87
2023/02/08 01:28:21;;;;;;;;;;;;;;;;;;5045562;28;19925;-88
2023/02/08 01:30:46;;;;;;;;;;;;;;;-4.13;100.00;66326.81;5046008;28;19921;-86
2023/02/08 01:33:11;;;;;;;;;;;;;;;-4.17;100.00;66328.09;5043738;28;19921;-86
2023/02/08 01:35:36;;;;;;;;;;;;;;;-4.14;100.00;66326.28;5045663;28;19966;-86
2023/02/08 01:38:02;;;;;;;;;;;;;;;-4.10;100.00;66332.78;5043155;28;19924;-82
2023/02/08 01:40:27;;;;;;;;;;;;;;;-4.15;100.00;66329.78;5046611;28;19940;-85
2023/02/08 01:42:52;;;;;;;;;;;;;;;-4.13;100.00;66332.56;5045958;28;19931;-85
2023/02/08 01:45:22;;;;;;;;;;;;;;;-4.17;100.00;66327.53;5045771;28;19927;-84
2023/02/08 01:47:50;;;;;;;;;;;;;;;-4.20;100.00;66319.56;5047685;28;19935;-86
2023/02/08 01:50:17;;;;;;;;;;;;;;;-4.21;100.00;66320.47;5049088;28;19920;-86
2023/02/08 01:52:44;;;;;;;;;;;;;;;-4.25;100.00;66313.94;5046574;28;19921;-85
2023/02/08 01:55:24;;;;;;;;;;;;;;;-4.27;100.00;66313.75;5047486;28;20003;-85
2023/02/08 01:57:53;;;;;;;;;;;;;;;-4.31;100.00;66310.38;5047175;28;20019;-87
2023/02/08 02:00:22;;;;;;;;;;;;;;;-4.25;100.00;66318.59;5046650;28;19990;-87
2023/02/08 02:02:52;;;;;;;;;;;;;;;-4.13;100.00;66327.38;5046399;28;19921;-86
2023/02/08 02:05:17;;;;;;;;;;;;;;;-4.17;100.00;66325.50;5040791;28;19944;-84
2023/02/08 02:07:43;;;;;;;;;;;;;;;-4.19;100.00;66320.66;5044075;28;19921;-85
2023/02/08 02:10:11;;;;;;;;;;;;;;;-4.17;100.00;66325.50;5046874;28;20012;-86
2023/02/08 02:12:38;;;;;;;;;;;;;;;-4.22;100.00;66319.34;5046914;28;19970;-85
2023/02/08 02:15:03;;;;;;;;;;;;;;;-4.31;100.00;66310.38;5045650;28;19964;-86
2023/02/08 02:17:29;;;;;;;;;;;;;;;-4.48;100.00;66293.94;5046825;28;19964;-86
2023/02/08 02:20:02;;;;;;;;;;;;;;;-4.54;100.00;66287.22;5047470;28;19939;-86
2023/02/08 02:22:28;;;;;;;;;;;;;;;-4.57;100.00;66283.88;5038360;28;19920;-85
2023/02/08 02:25:11;;;;;;;;;;;;;;;-4.49;100.00;66290.22;5047078;28;19952;-85
2023/02/08 02:27:43;;;;;;;;;;;;;;;-4.46;100.00;66295.63;5044298;28;19928;-85
2023/02/08 02:30:17;;;;;;;;;;;;;;;-4.43;100.00;66296.94;5045557;28;19920;-85
2023/02/08 02:32:52;;;;;;;;;;;;;;;-4.42;100.00;66295.47;5045684;28;19975;-86
2023/02/08 02:35:35;;;;;;;;;;;;;;;-4.45;100.00;66299.34;5045357;28;19928;-86
2023/02/08 02:38:04;;;;;;;;;;;;;;;-4.40;100.00;66297.72;5058687;28;19951;-86
2023/02/08 02:40:32;;;;;;;;;;;;;;;-4.44;100.00;66298.41;5047030;28;20023;-86
2023/02/08 02:46:11;;;;;;;;;;;;;;;-4.48;100.00;66291.34;5059195;28;19928;-86
2023/02/08 02:48:36;;;;;;;;;;;;;;;-4.53;100.00;66283.16;5046053;28;19991;-87
2023/02/08 02:51:08;;;;;;;;;;;;;;;-4.55;100.00;66286.09;5045793;28;20338;-87
2023/02/08 02:53:33;;;;;;;;;;;;;;;-4.61;100.00;66279.38;5044598;28;19975;-86
2023/02/08 02:56:02;;;;;;;;;;;;;;;-4.61;100.00;66277.34;5045976;28;19924;-87
2023/02/08 02:58:29;;;;;;;;;;;;;;;-4.63;100.00;66277.72;5045019;28;20333;-86
2023/02/08 03:00:56;;;;;;;;;;;;;;;-4.62;100.00;66273.06;5045292;28;19943;-86
2023/02/08 03:03:22;;;;;;;;;;;;;;;-4.68;100.00;66269.53;5048366;28;20386;-86
2023/02/08 03:05:49;;;;;;;;;;;;;;;-4.68;100.00;66272.13;5044410;28;19967;-86
2023/02/08 03:08:14;;;;;;;;;;;;;;;-4.73;100.00;66263.91;5046828;28;20004;-87
2023/02/08 03:10:39;;;;;;;;;;;;;;;-4.72;100.00;66267.06;5044611;28;20369;-85
2023/02/08 03:13:21;;;;;;;;;;;;;;;-4.70;100.00;66266.72;5046901;28;19929;-86
2023/02/08 03:15:47;;;;;;;;;;;;;;;-4.71;100.00;66266.16;5045266;28;20452;-86
2023/02/08 03:18:15;;;;;;;;;;;;;;;-4.74;100.00;66259.66;5047450;28;19970;-86
2023/02/08 03:20:41;;;;;;;;;;;;;;;-4.79;100.00;66260.34;5044807;28;19920;-85
2023/02/08 03:23:20;;;;;;;;;;;;;;;-4.73;100.00;66263.34;5049649;28;19921;-87
2023/02/08 03:26:11;;;;;;;;;;;;;;;-4.74;100.00;66259.66;5051179;28;19932;-87
2023/02/08 03:28:36;;;;;;;;;;;;;;;-4.83;100.00;66253.28;5048256;28;19921;-86
2023/02/08 03:31:02;;;;;;;;;;;;;;;-4.88;100.00;66249.72;5050525;28;20382;-87
2023/02/08 03:33:33;;;;;;;;;;;;;;;-4.84;100.00;66251.59;5052350;28;19928;-86
2023/02/08 03:35:58;;;;;;;;;;;;;;;-4.82;100.00;66254.41;5051524;28;20455;-87
2023/02/08 03:38:27;;;;;;;;;;;;;;;-4.80;100.00;66254.06;5052394;28;19988;-85
2023/02/08 03:40:54;;;;;;;;;;;;;;;-4.83;100.00;66253.28;5049355;28;20368;-87
2023/02/08 03:43:26;;;;;;;;;;;;;;;-4.84;100.00;66254.19;5054290;28;19928;-86
2023/02/08 03:45:57;;;;;;;;;;;;;;;-4.81;100.00;66255.50;5064454;28;19925;-86
2023/02/08 03:48:24;;;;;;;;;;;;;;;-4.88;100.00;66247.13;5057515;28;20476;-87
2023/02/08 03:50:51;;;;;;;;;;;;;;;-4.86;100.00;66249.34;5049673;28;20648;-86
2023/02/08 03:53:18;;;;;;;;;;;;;;;-4.85;100.00;66253.09;5046181;28;19921;-87
2023/02/08 03:55:45;;;;;;;;;;;;;;;-4.87;100.00;66248.81;5049833;28;19925;-86
2023/02/08 03:58:25;;;;;;;;;;;;;;;-4.91;100.00;66244.34;5049115;28;19928;-87
2023/02/08 04:00:54;;;;;;;;;;;;;;;-4.92;100.00;66245.81;5049752;28;19928;-87
2023/02/08 04:03:22;;;;;;;;;;;;;;;-4.91;100.00;66244.34;5047551;28;19932;-86
2023/02/08 04:05:48;;;;;;;;;;;;;;;-4.90;100.00;66242.28;5050889;28;19921;-87
2023/02/08 04:08:13;;;;;;;;;;;;;;;-4.92;100.00;66243.22;5055421;28;19924;-86
2023/02/08 04:10:39;;;;;;;;;;;;;;;-4.90;100.00;66247.47;5055540;28;19917;-85
2023/02/08 04:13:04;;;;;;;;;;;;;;;-4.92;100.00;66240.06;5053425;28;19932;-86
2023/02/08 04:15:30;;;;;;;;;;;;;;;-4.96;100.00;66241.34;5051900;28;19929;-87
2023/02/08 04:17:55;;;;;;;;;;;;;;;-5.01;100.00;66235.72;5055060;28;19921;-87
2023/02/08 04:20:20;;;;;;;;;;;;;;;-4.97;100.00;66237.63;5055590;28;20487;-87
2023/02/08 04:22:46;;;;;;;;;;;;;;;-4.96;100.00;66241.34;5056411;28;20413;-86
2023/02/08 04:25:11;;;;;;;;;;;;;;;-4.95;100.00;66236.69;5051380;28;19929;-87
2023/02/08 04:27:36;;;;;;;;;;;;;;;-4.97;100.00;66235.03;5053730;28;19947;-86
2023/02/08 04:30:02;;;;;;;;;;;;;;;-4.96;100.00;66241.34;5049532;28;19939;-86
2023/02/08 04:32:27;;;;;;;;;;;;;;;-5.01;100.00;66241.47;5053357;28;19921;-86
2023/02/08 04:34:53;;;;;;;;;;;;;;;-5.03;100.00;66228.31;5051984;28;20815;-87
2023/02/08 04:37:18;;;;;;;;;;;;;;;-5.06;100.00;66230.72;5053771;28;19921;-86
2023/02/08 04:39:43;;;;;;;;;;;;;;;-5.05;100.00;66234.41;5051540;28;19943;-86
2023/02/08 04:42:08;;;;;;;;;;;;;;;-5.02;100.00;66235.16;5053350;28;20455;-86
2023/02/08 04:44:34;;;;;;;;;;;;;;;-5.01;100.00;66235.72;5050052;28;19939;-87
2023/02/08 04:46:59;;;;;;;;;;;;;;;-5.03;100.00;66228.31;5050275;28;20004;-86
2023/02/08 04:49:25;;;;;;;;;;;;;;;-5.01;100.00;66231.09;5050520;28;19951;-85
2023/02/08 04:51:50;;;;;;;;;;;;;;;-5.04;100.00;66229.78;5047799;28;19963;-86
2023/02/08 04:54:15;;;;;;;;;;;;;;;-5.09;100.00;66221.59;5052222;28;19967;-87
2023/02/08 04:56:41;;;;;;;;;;;;;;;-5.08;100.00;66223.28;5051139;28;19921;-86
2023/02/08 04:59:06;;;;;;;;;;;;;;;-5.16;100.00;66216.34;5052169;28;19932;-86
2023/02/08 05:01:31;;;;;;;;;;;;;;;-5.07;100.00;66223.81;5050211;28;19921;-86
2023/02/08 05:03:56;;;;;;;;;;;;;;;-5.03;100.00;66233.50;5049741;28;20021;-86
2023/02/08 05:06:21;;;;;;;;;;;;;;;-5.11;100.00;66224.56;5045974;28;19963;-86
2023/02/08 05:08:47;;;;;;;;;;;;;;;-5.13;100.00;66222.31;5051474;28;19932;-86
2023/02/08 05:11:17;;;;;;;;;;;;;;;-5.09;100.00;66224.19;5051313;28;19921;-86
2023/02/08 05:13:43;;;;;;;;;;;;;;;-5.10;100.00;66223.63;5053030;28;20632;-86
2023/02/08 05:16:08;;;;;;;;;;;;;;;-5.14;100.00;66218.59;5053540;28;19945;-87
2023/02/08 05:18:33;;;;;;;;;;;;;;;-5.11;100.00;66224.56;5052301;28;20322;-86
2023/02/08 05:20:59;;;;;;;;;;;;;;;-5.13;100.00;66219.72;5051306;28;19920;-86
2023/02/08 05:23:24;;;;;;;;;;;;;;;;;;5048148;28;19970;-86
2023/02/08 05:25:50;;;;;;;;;;;;;;;-5.18;100.00;66212.06;5051427;28;19920;-87
2023/02/08 05:28:15;;;;;;;;;;;;;;;-5.13;100.00;66222.84;5055094;28;19944;-88
2023/02/08 05:30:40;;;;;;;;;;;;;;;-5.12;100.00;66226.59;5053827;28;19960;-88
2023/02/08 05:33:06;;;;;;;;;;;;;;;-5.13;100.00;66222.31;5043799;28;20405;-87
2023/02/08 05:35:31;;;;;;;;;;;;;;;-5.19;100.00;66210.97;5033434;28;20334;-86
2023/02/08 05:37:56;;;;;;;;;;;;;;;-5.16;100.00;66216.34;5052354;28;19928;-86
2023/02/08 05:40:21;;;;;;;;;;;;;;;-5.16;100.00;66216.34;5058530;28;19924;-85
2023/02/08 05:42:46;;;;;;;;;;;;;;;-5.19;100.00;66215.59;5062215;28;19967;-85
2023/02/08 05:45:12;;;;;;;;;;;;;;;-5.22;100.00;66210.75;5060841;28;20519;-86
2023/02/08 05:47:37;;;;;;;;;;;;;;;-5.20;100.00;66214.47;5062348;28;20235;-85
2023/02/08 05:50:03;;;;;;;;;;;;;;;-5.18;100.00;66214.66;5053535;28;19986;-86
2023/02/08 05:52:28;;;;;;;;;;;;;;;-5.20;100.00;66214.47;5049291;28;19921;-85
2023/02/08 05:54:53;;;;;;;;;;;;;;;-5.23;100.00;66207.06;5049396;28;20493;-86
2023/02/08 05:57:18;;;;;;;;;;;;;;;-5.26;100.00;66208.88;5049430;28;20325;-85
2023/02/08 05:59:43;;;;;;;;;;;;;;;-5.30;100.00;66204.41;5047965;28;20318;-85
2023/02/08 06:02:09;;;;;;;;;;;;;;;-5.31;100.00;66198.09;5048982;28;19928;-85
2023/02/08 06:04:34;;;;;;;;;;;;;;;-5.37;100.00;66193.97;5047703;28;19945;-86
2023/02/08 06:06:59;;;;;;;;;;;;;;;-5.37;100.00;66196.56;5043945;28;19928;-85
2023/02/08 06:09:24;;;;;;;;;;;;;;;-5.37;100.00;66193.97;5049265;28;19991;-85
2023/02/08 06:11:50;;;;;;;;;;;;;;;-5.30;100.00;66204.41;5049020;28;19970;-85
2023/02/08 06:14:15;;;;;;;;;;;;;;;-5.40;100.00;66192.66;5049933;28;19974;-86
2023/02/08 06:16:40;;;;;;;;;;;;;;;-5.40;100.00;66190.63;5047443;28;19927;-82
2023/02/08 06:19:05;;;;;;;;;;;;;;;-5.45;100.00;66190.78;5051458;28;20440;-85
2023/02/08 06:21:31;;;;;;;;;;;;;;;-5.40;100.00;66188.03;5050469;28;19925;-85
2023/02/08 06:23:56;;;;;;;;;;;;;;;-5.41;100.00;66189.50;5048717;28;19921;-85
2023/02/08 06:26:21;;;;;;;;;;;;;;;-5.44;100.00;66188.72;5046437;28;19920;-85
2023/02/08 06:28:46;;;;;;;;;;;;;;;;;;5046183;28;19952;-84
2023/02/08 06:31:11;;;;;;;;;;;;;;;-5.38;100.00;66192.88;5048770;28;19929;-83
2023/02/08 06:33:36;;;;;;;;;;;;;;;;;;5047437;28;19928;-84
2023/02/08 06:36:02;;;;;;;;;;;;;;;-5.23;100.00;66212.25;5047350;28;19932;-84
2023/02/08 06:38:27;;;;;;;;;;;;;;;-5.23;100.00;66211.69;5048456;28;19925;-84
2023/02/08 06:40:52;;;;;;;;;;;;;;;-5.21;100.00;66211.31;5047120;28;19928;-85
2023/02/08 06:43:18;;;;;;;;;;;;;;;-5.26;100.00;66208.88;5048943;28;19929;-85
2023/02/08 06:45:44;;;;;;;;;;;;;;;-5.25;100.00;66209.44;5048615;28;19936;-84
2023/02/08 06:48:09;;;;;;;;;;;;;;;-5.22;100.00;66210.75;5048384;28;19925;-83
2023/02/08 06:50:36;;;;;;;;;;;;;;;-5.14;100.00;66218.59;5048143;28;19975;-85
2023/02/08 06:53:01;;;;;;;;;;;;;;;-5.15;100.00;66220.06;5048919;28;19929;-84
2023/02/08 06:55:27;;;;;;;;;;;;;;;-5.10;100.00;66223.63;5049739;28;19927;-83
2023/02/08 06:57:53;;;;;;;;;;;;;;;-5.11;100.00;66224.56;5048378;28;19921;-85
2023/02/08 07:00:18;;;;;;;;;;;;;;;-5.23;100.00;66212.25;5053287;28;20670;-84
2023/02/08 07:02:46;;;;;;;;;;;;;;;-5.16;100.00;66216.34;5053326;28;19924;-84
2023/02/08 07:05:11;;;;;;;;;;;;;;;-5.19;100.00;66216.16;5055025;28;20044;-82
2023/02/08 07:07:36;;;;;;;;;;;;;;;-5.16;100.00;66218.94;5049221;28;20410;-84
2023/02/08 07:10:01;;;;;;;;;;;;;;;-5.17;100.00;66215.81;5054093;28;19928;-83
2023/02/08 07:12:27;;;;;;;;;;;;;;;-5.12;100.00;66223.41;5051630;28;20547;-84
2023/02/08 07:14:52;;;;;;;;;;;;;;;-5.23;100.00;66211.69;5054030;28;20432;-82
2023/02/08 07:17:17;;;;;;;;;;;;;;;-5.28;100.00;66209.22;5067082;28;19921;-83
2023/02/08 07:19:42;;;;;;;;;;;;;;;-5.24;100.00;66208.53;5066480;28;19933;-81
2023/02/08 07:22:08;;;;;;;;;;;;;;;-5.19;100.00;66210.41;5054100;28;19932;-83
2023/02/08 07:24:37;;;;;;;;;;;;;;;-5.21;100.00;66213.91;5051721;28;19925;-83
2023/02/08 07:27:02;;;;;;;;;;;;;;;-5.18;100.00;66212.06;5048555;28;19935;-84
2023/02/08 07:29:28;;;;;;;;;;;;;;;-5.13;100.00;66219.72;5050573;28;20429;-83
2023/02/08 07:31:53;;;;;;;;;;;;;;;-5.05;100.00;66231.25;5051273;28;19929;-83
2023/02/08 07:34:20;;;;;;;;;;;;;;;-5.03;100.00;66236.09;5053064;28;19928;-83
2023/02/08 07:36:46;;;;;;;;;;;;;;;-4.98;100.00;66239.09;5050601;28;19921;-83
2023/02/08 07:39:11;;;;;;;;;;;;;;;-5.17;100.00;66215.81;5050805;28;19940;-82
2023/02/08 07:41:36;;;;;;;;;;;;;;;-5.16;100.00;66221.53;5050439;28;19925;-81
2023/02/08 07:44:02;;;;;;;;;;;;;;;-5.00;100.00;66234.81;5051826;28;19925;-82
2023/02/08 07:46:27;;;;;;;;;;;;;;;-4.92;100.00;66243.22;5051614;28;19928;-83
2023/02/08 07:48:52;;;;;;;;;;;;;;;-4.84;100.00;66249.00;5050603;28;19947;-80
2023/02/08 07:51:18;;;;;;;;;;;;;;;-4.79;100.00;66260.34;5048570;28;19982;-83
2023/02/08 07:53:43;;;;;;;;;;;;;;;-4.73;100.00;66265.97;5048405;28;19994;-81
2023/02/08 07:56:09;;;;;;;;;;;;;;;-4.65;100.00;66274.91;5047909;28;20015;-83
2023/02/08 07:58:34;;;;;;;;;;;;;;;-4.43;100.00;66299.56;5046398;28;21827;-81
2023/02/08 08:00:59;;;;;;;;;;;;;;;-4.23;100.00;66320.81;5047795;28;20012;-80
2023/02/08 08:03:25;;;;;;;;;;;;;;;-4.23;100.00;66315.63;5051703;28;19956;-84
2023/02/08 08:05:50;;;;;;;;;;;;;;;-4.06;100.00;66334.66;5050776;28;19956;-84
2023/02/08 08:08:15;;;;;;;;;;;;;;;-3.90;100.00;66352.03;5055862;28;19967;-82
2023/02/08 08:10:41;;;;;;;;;;;;;;;-3.77;100.00;66374.41;5050075;28;19931;-84
2023/02/08 08:13:06;;;;;;;;;;;;;;;-3.65;100.00;66382.09;5046107;28;19921;-84
2023/02/08 08:15:32;;;;;;;;;;;;;;;-3.52;100.00;66394.03;5052034;28;20270;-83
2023/02/08 08:17:57;;;;;;;;;;;;;;;-3.41;100.00;66411.56;5049895;28;19943;-85
2023/02/08 08:20:22;;;;;;;;;;;;;;;-3.29;100.00;66424.47;5052816;28;19925;-83
2023/02/08 08:22:48;;;;;;;;;;;;;;;-3.23;100.00;66428.03;5052865;28;19976;-84
2023/02/08 08:25:13;;;;;;;;;;;;;;;-3.13;100.00;66439.25;5051408;28;19929;-84
2023/02/08 08:27:38;;;;;;;;;;;;;;;;;;5051342;28;19928;-85
2023/02/08 08:30:08;;;;;;;;;;;;;;;-2.86;100.00;66466.34;5053004;28;19924;-84
2023/02/08 08:32:33;;;;;;;;;;;;;;;-2.71;100.00;66485.19;5051404;28;20019;-85
2023/02/08 08:34:59;;;;;;;;;;;;;;;-2.65;100.00;66489.31;5049893;28;20021;-85
2023/02/08 08:37:24;;;;;;;;;;;;;;;-2.47;100.00;66508.38;5055658;28;19924;-84
2023/02/08 08:39:49;;;;;;;;;;;;;;;;;;5052731;28;19925;-84
2023/02/08 08:42:14;;;;;;;;;;;;;;;-2.20;100.00;66538.69;5053973;28;19963;-84
2023/02/08 08:44:40;;;;;;;;;;;;;;;-2.07;100.00;66555.91;5053580;28;19986;-83
2023/02/08 08:47:05;;;;;;;;;;;;;;;-1.90;100.00;66576.44;5054686;28;19921;-86
2023/02/08 08:49:30;;;;;;;;;;;;;;;-1.81;100.00;66576.13;5056417;28;20673;-85
2023/02/08 08:51:56;;;;;;;;;;;;;;;-1.66;100.00;66598.19;5052863;28;19921;-84
2023/02/08 08:54:22;;;;;;;;;;;;;;;-1.50;100.00;66615.56;5056475;28;19972;-86
2023/02/08 08:56:47;;;;;;;;;;;;;;;-1.37;100.00;66630.16;5053124;28;19944;-86
2023/02/08 08:59:13;;;;;;;;;;;;;;;-1.24;100.00;66643.66;5056395;28;19925;-85
2023/02/08 09:01:40;;;;;;;;;;;;;;;-1.17;100.00;66654.69;5057227;28;19967;-86
2023/02/08 09:04:05;;;;;;;;;;;;;;;-1.06;100.00;66663.88;5055267;28;20359;-83
2023/02/08 09:06:30;;;;;;;;;;;;;;;-0.95;100.00;66671.00;5049057;28;19952;-83
2023/02/08 09:08:56;;;;;;;;;;;;;;;-0.83;100.00;66691.19;5048171;28;19921;-82
2023/02/08 09:11:21;;;;;;;;;;;;;;;-0.73;100.00;66699.81;5051998;28;19927;-84
2023/02/08 09:13:50;;;;;;;;;;;;;;;-0.62;100.00;66711.63;5049423;28;20363;-84
2023/02/08 09:16:15;;;;;;;;;;;;;;;-0.51;100.00;66718.75;5047062;28;19928;-83
2023/02/08 09:18:41;;;;;;;;;;;;;;;-0.38;100.00;66738.03;5049142;28;19925;-82
2023/02/08 09:21:08;;;;;;;;;;;;;;;-0.25;100.00;66753.19;5048433;28;20037;-84
2023/02/08 09:23:33;;;;;;;;;;;;;;;;;;5048165;28;19952;-80
2023/02/08 09:25:58;;;;;;;;;;;;;;;;;;5047138;28;20002;-83
2023/02/08 09:28:23;;;;;;;;;;;;;;;0.21;100.00;66803.22;5047604;28;19927;-86
2023/02/08 09:30:49;;;;;;;;;;;;;;;0.30;100.00;66807.56;5046828;28;19921;-84
2023/02/08 09:33:14;;;;;;;;;;;;;;;0.44;100.00;66831.16;5048469;28;19921;-84
2023/02/08 09:35:39;;;;;;;;;;;;;;;0.63;100.00;66849.34;5045281;28;19924;-84
2023/02/08 09:38:04;;;;;;;;;;;;;;;;;;5045114;28;19928;-84
2023/02/08 09:40:37;;;;;;;;;;;;;;;0.95;100.00;66878.97;5047504;28;19928;-84
2023/02/08 09:43:07;;;;;;;;;;;;;;;1.01;100.00;66894.16;5045378;28;19964;-84
2023/02/08 09:45:35;;;;;;;;;;;;;;;1.17;100.00;66908.44;5044919;28;19921;-82
2023/02/08 09:48:19;;;;;;;;;;;;;;;1.25;100.00;66912.19;5045945;28;20318;-85
2023/02/08 09:50:51;;;;;;;;;;;;;;;1.38;100.00;66926.81;5045959;28;20386;-84
2023/02/08 09:53:20;;;;;;;;;;;;;;;1.41;100.00;66930.22;5043531;28;19927;-86
2023/02/08 09:55:54;;;;;;;;;;;;;;;1.54;100.00;66950.06;5044832;28;20010;-84
2023/02/08 09:58:28;;;;;;;;;;;;;;;1.61;100.00;66957.38;5047315;28;20401;-84
2023/02/08 10:00:53;;;;;;;;;;;;;;;1.68;100.00;66964.72;5045481;28;20003;-84
2023/02/08 10:03:19;;;;;;;;;;;;;;;1.80;100.00;66980.84;5046783;28;19920;-85
2023/02/08 10:05:44;;;;;;;;;;;;;;;1.89;100.00;66988.34;5045531;28;20616;-83
2023/02/08 10:08:09;;;;;;;;;;;;;;;;;;5048316;28;19925;-85
2023/02/08 10:10:34;;;;;;;;;;;;;;;;;;5045401;28;20012;-83
2023/02/08 10:12:59;;;;;;;;;;;;;;;;;;5045134;28;20398;-84
2023/02/08 10:15:24;;;;;;;;;;;;;;;;;;5047364;28;19982;-83
2023/02/08 10:18:09;;;;;;;;;;;;;;;2.36;100.00;67039.63;5046434;28;19931;-84
2023/02/08 10:20:34;;;;;;;;;;;;;;;;;;5042397;28;20059;-82
2023/02/08 10:22:59;;;;;;;;;;;;;;;2.55;100.00;67060.47;5046857;28;20046;-83
2023/02/08 10:25:24;;;;;;;;;;;;;;;;;;5045786;28;20817;-84
2023/02/08 10:27:55;;;;;;;;;;;;;;;2.78;100.00;67086.38;5046335;28;20579;-85
2023/02/08 10:30:26;;;;;;;;;;;;;;;2.92;100.00;67096.91;5046888;28;20008;-85
2023/02/08 10:32:51;;;;;;;;;;;;;;;;;;5049810;28;20394;-84
2023/02/08 10:35:23;;;;;;;;;;;;;;;3.10;100.00;67124.53;5051022;28;20544;-85
2023/02/08 10:37:48;;;;;;;;;;;;;;;3.04;100.00;67115.13;5052428;28;20005;-85
2023/02/08 10:40:15;;;;;;;;;;;;;;;;;;5045403;28;20448;-86
2023/02/08 10:42:41;;;;;;;;;;;;;;;3.22;100.00;67134.31;5049164;28;20540;-86
2023/02/08 10:45:13;;;;;;;;;;;;;;;3.22;100.00;67136.94;5050680;28;19974;-85
2023/02/08 10:47:39;;;;;;;;;;;;;;;;;;5049893;28;19947;-83
2023/02/08 10:50:24;;;;;;;;;;;;;;;3.20;100.00;67127.38;5048631;28;20045;-85
2023/02/08 10:52:50;;;;;;;;;;;;;;;3.44;100.00;67153.28;5049098;28;20416;-83
2023/02/08 10:55:19;;;;;;;;;;;;;;;3.59;98.51;67176.03;5050571;28;20007;-85
2023/02/08 10:57:45;;;;;;;;;;;;;;;;;;5050563;28;19921;-86
2023/02/08 11:00:14;;;;;;;;;;;;;;;3.56;84.12;67172.09;5053495;28;19933;-85
2023/02/08 11:02:40;;;;;;;;;;;;;;;;;;5052159;28;19920;-82
2023/02/08 11:05:05;;;;;;;;;;;;;;;;;;5050210;28;19928;-83
2023/02/08 11:07:30;;;;;;;;;;;;;;;;;;5055995;28;19917;-84
2023/02/08 11:09:55;;;;;;;;;;;;;;;;;;5049167;28;19921;-84
2023/02/08 11:12:21;;;;;;;;;;;;;;;3.86;66.11;67204.81;5054558;28;19916;-83
2023/02/08 11:14:47;;;;;;;;;;;;;;;;;;5051359;28;19927;-84
2023/02/08 11:17:12;;;;;;;;;;;;;;;;;;5051891;28;19960;-83
2023/02/08 11:19:41;;;;;;;;;;;;;;;;;;5052735;28;20019;-86
2023/02/08 11:22:06;;;;;;;;;;;;;;;;;;5053063;28;19921;-84
2023/02/08 11:24:39;;;;;;;;;;;;;;;4.14;64.18;67231.13;5097027;22;19936;-86
2023/02/08 11:27:33;;;;;;;;;;;;;;;4.27;60.31;67251.06;5013939;28;19983;-85
2023/02/08 11:29:58;;;;;;;;;;;;;;;;;;4974695;28;19929;-85
2023/02/08 11:32:23;;;;;;;;;;;;;;;4.33;61.63;67252.00;5018588;28;19944;-85
2023/02/08 11:34:49;;;;;;;;;;;;;;;4.38;61.23;67262.38;5013245;28;19983;-85
2023/02/08 11:37:16;;;;;;;;;;;;;;;4.30;61.08;67254.47;4992287;28;19922;-86
2023/02/08 11:39:48;;;;;;;;;;;;;;;4.28;59.00;67246.38;5011096;28;20416;-86
2023/02/08 11:42:19;;;;;;;;;;;;;;;4.35;54.88;67259.00;5022801;28;19929;-86
2023/02/08 11:44:44;;;;;;;;;;;;;;;4.45;62.17;67270.25;5019488;28;20382;-86
2023/02/08 11:47:09;;;;;;;;;;;;;;;;;;5012728;28;19936;-86
2023/02/08 11:49:40;;;;;;;;;;;;;;;4.67;61.55;67295.09;5017391;28;20040;-84
2023/02/08 11:52:05;;;;;;;;;;;;;;;;;;5021354;28;19921;-84
2023/02/08 11:54:30;;;;;;;;;;;;;;;;;;5022530;28;19921;-85
2023/02/08 11:56:55;;;;;;;;;;;;;;;;;;5013722;28;19921;-85
2023/02/08 11:59:23;;;;;;;;;;;;;;;4.76;58.95;67304.69;5011365;28;19964;-84
2023/02/08 12:01:48;;;;;;;;;;;;;;;4.81;58.84;67304.53;4996454;28;19921;-85
2023/02/08 12:04:14;;;;;;;;;;;;;;;4.87;59.15;67316.56;5006155;28;19972;-84
2023/02/08 12:06:39;;;;;;;;;;;;;;;;;;4993448;28;19961;-84
2023/02/08 12:09:23;;;;;;;;;;;;;;;4.95;57.01;67325.59;4999212;28;20403;-85
2023/02/08 12:11:48;;;;;;;;;;;;;;;;;;5009193;28;19925;-85
2023/02/08 12:14:29;;;;;;;;;;;;;;;5.27;57.73;67355.91;5024019;28;19925;-84
2023/02/08 12:17:06;;;;;;;;;;;;;;;5.38;56.13;67373.03;5009321;28;19921;-85
2023/02/08 12:19:46;;;;;;;;;;;;;;;5.46;58.95;67376.78;5009375;28;19953;-85
2023/02/08 12:22:14;;;;;;;;;;;;;;;5.73;59.77;67406.19;5010955;28;19928;-83
2023/02/08 12:24:48;;;;;;;;;;;;;;;5.63;59.18;67400.72;5013013;28;20395;-84
2023/02/08 12:27:13;;;;;;;;;;;;;;;;;;5012212;28;19918;-84
2023/02/08 12:29:38;;;;;;;;;;;;;;;5.62;58.99;67400.16;5016443;28;19928;-83
2023/02/08 12:32:13;;;;;;;;;;;;;;;5.65;56.90;67397.69;5022857;28;19917;-84
2023/02/08 12:34:39;;;;;;;;;;;;;;;;;;5018932;28;19921;-84
2023/02/08 12:43:16;;;;;;;;;;;;;;;6.00;53.33;67436.72;5012685;28;20091;-82
2023/02/08 12:45:41;;;;;;;;;;;;;;;;;;5005069;28;20354;-82
2023/02/08 12:48:06;;;;;;;;;;;;;;;;;;5020871;28;20016;-82
2023/02/08 12:50:36;;;;;;;;;;;;;;;6.15;50.96;67452.53;5021849;28;19960;-82
2023/02/08 12:53:14;;;;;;;;;;;;;;;6.36;52.72;67481.56;5002909;28;19975;-82
2023/02/08 12:55:41;;;;;;;;;;;;;;;6.58;48.85;67500.03;5012804;28;20386;-82
2023/02/08 12:58:25;;;;;;;;;;;;;;;6.61;47.93;67509.28;5016335;28;19925;-83
2023/02/08 13:00:51;;;;;;;;;;;;;;;6.55;49.47;67497.75;5014248;28;19953;-82
2023/02/08 13:03:17;;;;;;;;;;;;;;;;;;5013793;28;19961;-82
2023/02/08 13:05:45;;;;;;;;;;;;;;;6.74;50.88;67523.41;5013022;28;20009;-81
2023/02/08 13:08:28;;;;;;;;;;;;;;;6.78;46.84;67522.66;5013935;28;20318;-83
2023/02/08 13:11:00;;;;;;;;;;;;;;;6.79;50.14;67523.78;5012313;28;19929;-81
2023/02/08 13:13:28;;;;;;;;;;;;;;;7.04;50.63;67559.44;5010407;28;20429;-82